createdAt,value
2023-04-15T01:06:05.553Z,10.56
2023-04-15T01:08:33.411Z,10.52
2023-04-15T01:11:03.759Z,10.50
2023-04-15T01:13:35.014Z,10.48
2023-04-15T01:16:03.253Z,10.45
2023-04-15T01:18:33.956Z,10.43
2023-04-15T01:21:05.142Z,10.41
2023-04-15T01:23:38.667Z,10.37
2023-04-15T01:26:10.440Z,10.35
2023-04-15T01:28:38.366Z,10.33
2023-04-15T01:31:10.846Z,10.30
2023-04-15T01:33:40.078Z,10.29
2023-04-15T01:36:10.023Z,10.27
2023-04-15T01:38:38.843Z,10.25
2023-04-15T01:41:08.286Z,10.23
2023-04-15T01:43:37.376Z,10.20
2023-04-15T01:46:07.306Z,10.18
2023-04-15T01:48:35.404Z,10.15
2023-04-15T01:51:04.911Z,10.12
2023-04-15T01:53:32.616Z,10.10
2023-04-15T01:56:00.344Z,10.08
2023-04-15T01:58:28.017Z,10.07
2023-04-15T02:00:55.965Z,10.05
2023-04-15T02:03:25.876Z,10.03
2023-04-15T02:05:53.705Z,10.00
2023-04-15T02:08:22.539Z,9.99
2023-04-15T02:10:50.932Z,9.96
2023-04-15T02:13:19.104Z,9.94
2023-04-15T02:15:48.654Z,9.92
2023-04-15T02:18:17.047Z,9.90
2023-04-15T02:20:45.582Z,9.88
2023-04-15T02:23:13.414Z,9.87
2023-04-15T02:25:41.160Z,9.85
2023-04-15T02:28:08.906Z,9.84
2023-04-15T02:30:36.614Z,9.82
2023-04-15T02:33:04.674Z,9.80
2023-04-15T02:35:32.362Z,9.79
2023-04-15T02:38:01.040Z,9.77
2023-04-15T02:40:28.830Z,9.76
2023-04-15T02:42:56.495Z,9.75
2023-04-15T02:45:27.786Z,9.74
2023-04-15T02:47:57.271Z,9.72
2023-04-15T02:50:25.700Z,9.70
2023-04-15T02:52:53.337Z,9.70
2023-04-15T02:55:21.117Z,9.70
2023-04-15T02:57:49.287Z,9.69
2023-04-15T03:00:17.016Z,9.68
2023-04-15T03:02:47.076Z,9.68
2023-04-15T03:05:15.023Z,9.67
2023-04-15T03:07:51.713Z,9.66
2023-04-15T03:10:20.292Z,9.66
2023-04-15T03:12:48.516Z,9.65
2023-04-15T03:15:21.332Z,9.64
2023-04-15T03:17:51.547Z,9.63
2023-04-15T03:20:19.803Z,9.62
2023-04-15T03:22:48.561Z,9.62
2023-04-15T03:25:16.400Z,9.62
2023-04-15T03:27:44.215Z,9.61
2023-04-15T03:30:13.328Z,9.60
2023-04-15T03:32:41.406Z,9.60
2023-04-15T03:35:09.816Z,9.59
2023-04-15T03:37:37.588Z,9.59
2023-04-15T03:40:05.862Z,9.59
2023-04-15T03:42:33.532Z,9.58
2023-04-15T03:45:01.513Z,9.58
2023-04-15T03:47:29.290Z,9.57
2023-04-15T03:49:57.064Z,9.57
2023-04-15T03:52:24.751Z,9.57
2023-04-15T03:54:52.911Z,9.56
2023-04-15T03:57:20.647Z,9.56
2023-04-15T03:59:48.300Z,9.55
2023-04-15T04:02:16.304Z,9.55
2023-04-15T04:04:44.354Z,9.54
2023-04-15T04:07:16.805Z,9.55
2023-04-15T04:09:46.681Z,9.54
2023-04-15T04:12:15.054Z,9.54
2023-04-15T04:14:42.878Z,9.54
2023-04-15T04:17:10.650Z,9.53
2023-04-15T04:19:38.360Z,9.52
2023-04-15T04:22:06.580Z,9.52
2023-04-15T04:24:34.347Z,9.51
2023-04-15T04:27:02.140Z,9.50
2023-04-15T04:29:29.844Z,9.51
2023-04-15T04:31:57.573Z,9.50
